Time;durP1;ratioP1;P1;durP2;ratioP2;P2;SDS_P1;SDS_P2;PMS_P1;PMS_P2;Temp;Humidity;BMP_temperature;BMP_pressure;BME280_temperature;BME280_humidity;BME280_pressure;Samples;Min_cycle;Max_cycle;Signal;HPM_P1;HPM_P2
2021/11/25 00:02:14;;;;;;;33.63;11.13;;;;;;;-145.69;100.00;72960.75;5116097;28;20205;-76
2021/11/25 00:04:41;;;;;;;29.33;10.90;;;;;;;-145.69;100.00;72982.66;5115947;28;20628;-75
2021/11/25 00:07:09;;;;;;;35.53;11.63;;;;;;;-145.69;100.00;72954.78;5115841;28;20193;-76
2021/11/25 00:09:37;;;;;;;38.77;11.27;;;;;;;-145.69;100.00;72968.72;5116016;28;20208;-74
2021/11/25 00:12:04;;;;;;;38.20;11.77;;;;;;;-145.69;100.00;72970.72;5115980;28;20209;-76
2021/11/25 00:14:30;;;;;;;30.90;10.70;;;;;;;-145.69;100.00;72978.69;5115751;28;20242;-76
2021/11/25 00:16:58;;;;;;;36.57;11.23;;;;;;;-145.69;100.00;72978.69;5115641;28;20205;-75
2021/11/25 00:19:24;;;;;;;28.17;11.10;;;;;;;-145.69;100.00;72972.72;5115021;28;20655;-75
2021/11/25 00:21:51;;;;;;;31.30;10.87;;;;;;;-145.69;100.00;72972.72;5115690;28;20594;-75
2021/11/25 00:24:18;;;;;;;29.30;10.37;;;;;;;-145.69;100.00;72974.69;5115487;28;20656;-76
2021/11/25 00:26:45;;;;;;;34.60;10.80;;;;;;;-145.69;100.00;72966.72;5115726;28;20197;-75
2021/11/25 00:29:11;;;;;;;27.77;10.30;;;;;;;-145.69;100.00;72972.72;5115223;28;20200;-75
2021/11/25 00:31:38;;;;;;;31.23;10.60;;;;;;;-145.69;100.00;72972.72;5115444;28;20228;-75
2021/11/25 00:34:04;;;;;;;35.03;11.83;;;;;;;-145.69;100.00;72954.78;5115462;28;20254;-76
2021/11/25 00:36:31;;;;;;;37.67;12.23;;;;;;;-145.69;100.00;72964.75;5115540;28;20201;-75
2021/11/25 00:38:57;;;;;;;37.67;12.20;;;;;;;-145.69;100.00;72948.81;5115499;28;20197;-75
2021/11/25 00:41:26;;;;;;;35.67;11.80;;;;;;;-145.69;100.00;72950.81;5115414;28;20201;-75
2021/11/25 00:43:53;;;;;;;36.70;11.57;;;;;;;-145.69;100.00;72940.84;5115260;28;20206;-76
2021/11/25 00:46:20;;;;;;;33.73;11.93;;;;;;;-145.69;100.00;72956.78;5115265;28;20541;-75
2021/11/25 00:48:47;;;;;;;35.27;10.97;;;;;;;-145.69;100.00;72952.78;5115042;28;20197;-76
2021/11/25 00:51:14;;;;;;;37.27;12.37;;;;;;;-145.69;100.00;72964.75;5115111;28;20236;-75
2021/11/25 00:53:40;;;;;;;38.27;12.27;;;;;;;-145.69;100.00;72964.75;5114898;28;20197;-75
2021/11/25 00:56:07;;;;;;;35.87;12.70;;;;;;;-145.69;100.00;72966.72;5114959;28;20663;-76
2021/11/25 00:58:35;;;;;;;39.13;12.00;;;;;;;-145.69;100.00;72978.69;5114907;28;20201;-75
2021/11/25 01:01:02;;;;;;;35.97;11.97;;;;;;;-145.69;100.00;72986.63;5114763;28;20205;-76
2021/11/25 01:03:28;;;;;;;35.10;10.83;;;;;;;-145.69;100.00;72994.59;5114910;28;20212;-75
2021/11/25 01:05:55;;;;;;;27.00;10.13;;;;;;;-145.69;100.00;73004.56;5114874;28;20197;-75
2021/11/25 01:08:21;;;;;;;31.37;11.37;;;;;;;-145.69;100.00;72994.59;5114761;28;20220;-76
2021/11/25 01:10:48;;;;;;;33.50;11.10;;;;;;;-145.69;100.00;72986.63;5117046;27;20312;-75
2021/11/25 01:13:15;;;;;;;33.63;11.27;;;;;;;-145.69;100.00;72970.72;5114609;28;20258;-76
2021/11/25 01:15:43;;;;;;;37.53;11.50;;;;;;;-145.69;100.00;72958.78;5114425;28;20197;-75
2021/11/25 01:18:12;;;;;;;44.37;11.23;;;;;;;-145.69;100.00;72936.88;5114572;28;20595;-76
2021/11/25 01:20:40;;;;;;;36.33;11.67;;;;;;;-145.69;100.00;72930.91;5114380;28;20209;-75
2021/11/25 01:23:10;;;;;;;38.53;12.17;;;;;;;-145.69;100.00;72940.84;5128499;27;20208;-74
2021/11/25 01:25:36;;;;;;;34.83;9.97;;;;;;;-145.69;100.00;72946.81;5134803;27;20672;-75
2021/11/25 01:28:04;;;;;;;30.90;10.07;;;;;;;-145.69;100.00;72950.81;5134799;27;20200;-75
2021/11/25 01:30:30;;;;;;;33.10;10.60;;;;;;;-145.69;100.00;72962.75;5134173;27;20228;-76
2021/11/25 01:32:58;;;;;;;32.67;11.17;;;;;;;-145.69;100.00;72958.78;5134928;27;20605;-75
2021/11/25 01:35:25;;;;;;;30.93;10.27;;;;;;;-145.69;100.00;72958.78;5134852;27;20216;-75
2021/11/25 01:37:51;;;;;;;31.20;11.47;;;;;;;-145.69;100.00;72962.75;5134737;27;20205;-76
2021/11/25 01:40:18;;;;;;;35.70;11.20;;;;;;;-145.69;100.00;72962.75;5134080;27;20196;-75
2021/11/25 01:42:45;;;;;;;28.43;10.20;;;;;;;-145.69;100.00;72966.72;5134319;27;20205;-75
2021/11/25 01:45:16;;;;;;;29.70;10.43;;;;;;;-145.69;100.00;72962.75;5134495;27;20197;-75
2021/11/25 01:47:45;;;;;;;34.20;11.93;;;;;;;-145.69;100.00;72966.72;5134856;27;20208;-75
2021/11/25 01:50:15;;;;;;;27.57;10.80;;;;;;;-145.69;100.00;72960.75;5134339;27;20200;-75
2021/11/25 01:52:41;;;;;;;32.70;10.90;;;;;;;-145.69;100.00;72946.81;5134544;27;20597;-75
2021/11/25 01:55:08;;;;;;;34.70;11.33;;;;;;;-145.69;100.00;72950.81;5134290;27;20269;-75
2021/11/25 01:57:35;;;;;;;38.30;12.00;;;;;;;-145.69;100.00;72938.88;5134288;27;20651;-75
2021/11/25 02:00:02;;;;;;;39.33;12.70;;;;;;;-145.69;100.00;72922.94;5134503;27;20193;-76
2021/11/25 02:02:28;;;;;;;34.03;11.87;;;;;;;-145.69;100.00;72944.84;5134382;27;20205;-76
2021/11/25 02:04:55;;;;;;;36.20;11.73;;;;;;;-145.69;100.00;72930.91;5134387;27;20231;-76
2021/11/25 02:07:23;;;;;;;36.30;12.33;;;;;;;-145.69;100.00;72950.81;5134263;27;20200;-75
2021/11/25 02:09:49;;;;;;;35.40;11.30;;;;;;;-145.69;100.00;72942.84;5134076;27;20300;-76
2021/11/25 02:12:16;;;;;;;32.53;10.50;;;;;;;-145.69;100.00;72916.97;5134052;27;20276;-76
2021/11/25 02:14:43;;;;;;;38.20;12.80;;;;;;;-145.69;100.00;72914.97;5134161;27;20207;-76
2021/11/25 02:17:10;;;;;;;36.73;10.23;;;;;;;-145.69;100.00;72924.94;5133886;27;20656;-76
2021/11/25 02:19:37;;;;;;;31.83;11.43;;;;;;;-145.69;100.00;72946.81;5133870;27;20225;-76
2021/11/25 02:22:06;;;;;;;25.53;9.43;;;;;;;-145.69;100.00;72958.78;5134075;27;20204;-75
2021/11/25 02:24:32;;;;;;;34.30;10.37;;;;;;;-145.69;100.00;72952.78;5133888;27;20212;-76
2021/11/25 02:26:59;;;;;;;29.50;9.90;;;;;;;-145.69;100.00;72940.84;5133729;27;20204;-75
2021/11/25 02:29:25;;;;;;;35.17;11.33;;;;;;;-145.69;100.00;72922.94;5134024;27;20201;-76
2021/11/25 02:31:52;;;;;;;32.60;10.90;;;;;;;-145.69;100.00;72914.97;5133958;27;20318;-76
2021/11/25 02:34:19;;;;;;;35.43;10.57;;;;;;;-145.69;100.00;72907.00;5133809;27;20207;-75
2021/11/25 02:36:45;;;;;;;37.00;11.33;;;;;;;-145.69;100.00;72913.00;5133814;27;20204;-75
2021/11/25 02:39:13;;;;;;;33.40;10.03;;;;;;;-145.69;100.00;72934.88;5133645;27;20201;-75
2021/11/25 02:41:40;;;;;;;33.77;11.10;;;;;;;-145.69;100.00;72950.81;5134015;27;20192;-75
2021/11/25 02:44:07;;;;;;;34.10;10.97;;;;;;;-145.69;100.00;72950.81;5133994;27;20219;-75
2021/11/25 02:46:33;;;;;;;33.27;10.83;;;;;;;-145.69;100.00;72930.91;5133853;28;20197;-75
2021/11/25 02:49:02;;;;;;;32.67;11.27;;;;;;;-145.69;100.00;72916.97;5133842;27;20201;-76
2021/11/25 02:51:32;;;;;;;30.07;10.13;;;;;;;-145.69;100.00;72924.94;5133556;27;20224;-76
2021/11/25 02:53:59;;;;;;;33.07;10.97;;;;;;;-145.69;100.00;72926.91;5137973;27;20293;-75
2021/11/25 02:56:32;;;;;;;29.53;10.00;;;;;;;-145.69;100.00;72928.91;5138028;27;20245;-75
2021/11/25 02:59:00;;;;;;;26.70;9.83;;;;;;;-145.69;100.00;72946.81;5138030;27;20744;-75
2021/11/25 03:01:29;;;;;;;24.93;9.70;;;;;;;-145.69;100.00;72950.81;5137946;27;20197;-75
2021/11/25 03:03:57;;;;;;;24.20;9.53;;;;;;;-145.69;100.00;72946.81;5137819;27;20200;-76
2021/11/25 03:06:23;;;;;;;28.47;9.73;;;;;;;-145.69;100.00;72960.75;5129165;27;20206;-76
2021/11/25 03:08:50;;;;;;;29.83;9.47;;;;;;;-145.69;100.00;72950.81;5117258;28;20209;-75
2021/11/25 03:11:19;;;;;;;24.67;9.00;;;;;;;-145.69;100.00;72956.78;5117240;28;20248;-74
2021/11/25 03:13:52;;;;;;;28.03;9.77;;;;;;;-145.69;100.00;72960.75;5117179;28;20205;-75
2021/11/25 03:16:19;;;;;;;23.73;9.77;;;;;;;-145.69;100.00;72960.75;5117103;28;20227;-75
2021/11/25 03:18:46;;;;;;;27.77;9.13;;;;;;;-145.69;100.00;72966.72;5116628;28;20286;-75
2021/11/25 03:21:15;;;;;;;29.30;10.37;;;;;;;-145.69;100.00;72899.06;5116895;28;20197;-75
2021/11/25 03:23:42;;;;;;;29.87;10.13;;;;;;;-145.69;100.00;72895.06;5116689;28;20680;-76
2021/11/25 03:26:09;;;;;;;26.83;9.73;;;;;;;-145.69;100.00;72916.97;5116871;28;20197;-75
2021/11/25 03:28:42;;;;;;;30.27;9.30;;;;;;;-145.69;100.00;72928.91;5116697;28;20198;-75
2021/11/25 03:31:10;;;;;;;30.97;9.17;;;;;;;-145.69;100.00;72911.00;5116436;28;20229;-76
2021/11/25 03:33:37;;;;;;;30.27;9.80;;;;;;;-145.69;100.00;72922.94;5116756;28;20205;-76
2021/11/25 03:36:06;;;;;;;31.70;9.23;;;;;;;-145.69;100.00;72928.91;5116665;28;20201;-76
2021/11/25 03:38:33;;;;;;;24.27;8.73;;;;;;;-145.69;100.00;72938.88;5116619;28;20197;-76
2021/11/25 03:41:00;;;;;;;27.43;9.43;;;;;;;-145.69;100.00;72924.94;5116510;28;20206;-75
2021/11/25 03:43:28;;;;;;;27.87;9.03;;;;;;;-145.69;100.00;72913.00;5116287;28;20197;-75
2021/11/25 03:45:55;;;;;;;24.20;8.63;;;;;;;-145.69;100.00;72903.03;5116192;28;20213;-75
2021/11/25 03:48:28;;;;;;;28.53;9.70;;;;;;;-145.69;100.00;72918.97;5116229;28;20660;-76
2021/11/25 03:50:56;;;;;;;24.70;8.80;;;;;;;-145.69;100.00;72922.94;5116262;28;20197;-75
2021/11/25 03:53:23;;;;;;;22.20;8.70;;;;;;;-145.69;100.00;72934.88;5116328;28;20208;-76
2021/11/25 03:55:50;;;;;;;25.97;8.57;;;;;;;-145.69;100.00;72946.81;5116173;28;20201;-75
2021/11/25 03:58:16;;;;;;;24.97;9.13;;;;;;;-145.69;100.00;72938.88;5116063;28;20197;-76
2021/11/25 04:00:43;;;;;;;20.47;7.43;;;;;;;-145.69;100.00;72936.88;5116260;28;20193;-76
2021/11/25 04:03:10;;;;;;;22.47;8.67;;;;;;;-145.69;100.00;72926.91;5115746;28;20209;-76
2021/11/25 04:05:38;;;;;;;24.20;9.07;;;;;;;-145.69;100.00;72914.97;5115646;28;20198;-75
2021/11/25 04:08:05;;;;;;;26.03;9.07;;;;;;;-145.69;100.00;72899.06;5115977;28;20197;-75
2021/11/25 04:10:32;;;;;;;27.37;9.10;;;;;;;-145.69;100.00;72895.06;5115840;28;20193;-76
2021/11/25 04:12:58;;;;;;;29.37;9.67;;;;;;;-145.69;100.00;72859.25;5115683;28;20229;-76
2021/11/25 04:15:25;;;;;;;29.47;10.07;;;;;;;-145.69;100.00;72871.19;5115984;28;20201;-74
2021/11/25 04:17:52;;;;;;;26.07;8.80;;;;;;;-145.69;100.00;72875.16;5115218;28;20253;-75
2021/11/25 04:20:20;;;;;;;23.57;8.83;;;;;;;-145.69;100.00;72881.13;5115871;28;20204;-75
2021/11/25 04:22:48;;;;;;;22.57;7.73;;;;;;;-145.69;100.00;72895.06;5115591;28;20533;-75
2021/11/25 04:25:15;;;;;;;23.20;7.93;;;;;;;-145.69;100.00;72911.00;5115481;28;20209;-75
2021/11/25 04:27:43;;;;;;;21.87;8.17;;;;;;;-145.69;100.00;72899.06;5115526;28;20208;-75
2021/11/25 04:30:12;;;;;;;22.00;8.67;;;;;;;-145.69;100.00;72879.16;5115629;28;20202;-76
2021/11/25 04:35:31;;;;;;;24.63;8.57;;;;;;;-145.69;100.00;72891.09;5115423;28;20246;-75
2021/11/25 04:38:02;;;;;;;27.90;9.83;;;;;;;-145.69;100.00;72883.13;5115417;28;20250;-75
2021/11/25 04:40:35;;;;;;;25.90;8.83;;;;;;;-145.69;100.00;72889.09;5115474;28;20251;-76
2021/11/25 04:43:01;;;;;;;25.23;8.53;;;;;;;-145.69;100.00;72889.09;5115465;28;20200;-76
2021/11/25 04:45:30;;;;;;;26.00;8.63;;;;;;;-145.69;100.00;72887.09;5115247;28;20565;-76
2021/11/25 04:47:57;;;;;;;27.57;8.30;;;;;;;-145.69;100.00;72867.19;5115128;28;20232;-75
2021/11/25 04:50:26;;;;;;;23.17;7.70;;;;;;;-145.69;100.00;72851.28;5115077;28;20200;-75
2021/11/25 04:52:53;;;;;;;25.83;8.30;;;;;;;-145.69;100.00;72859.25;5114788;28;20278;-75
2021/11/25 04:55:23;;;;;;;26.03;7.77;;;;;;;-145.69;100.00;72863.22;5115243;28;20205;-76
2021/11/25 04:57:50;;;;;;;24.83;8.07;;;;;;;-145.69;100.00;72877.16;5115111;28;20296;-75
2021/11/25 05:00:19;;;;;;;21.13;7.43;;;;;;;-145.69;100.00;72873.19;5114943;28;20292;-76
2021/11/25 05:02:48;;;;;;;21.47;7.63;;;;;;;-145.69;100.00;72887.09;5114848;28;20198;-76
2021/11/25 05:05:15;;;;;;;18.90;7.53;;;;;;;-145.69;100.00;72897.06;5115150;28;20201;-75
2021/11/25 05:07:42;;;;;;;21.37;7.50;;;;;;;-145.69;100.00;72907.00;5117263;27;20197;-75
2021/11/25 05:10:10;;;;;;;24.00;8.50;;;;;;;-145.69;100.00;72867.19;5114735;28;20199;-75
2021/11/25 05:12:39;;;;;;;22.83;8.27;;;;;;;-145.69;100.00;72887.09;5114007;28;20303;-75
2021/11/25 05:15:07;;;;;;;21.27;8.27;;;;;;;-145.69;100.00;72879.16;5114688;28;20606;-75
2021/11/25 05:17:37;;;;;;;23.70;8.73;;;;;;;-145.69;100.00;72895.06;5114425;28;20209;-75
2021/11/25 05:20:07;;;;;;;24.00;8.33;;;;;;;-145.69;100.00;72881.13;5074039;28;20293;-75
2021/11/25 05:22:34;;;;;;;24.57;7.67;;;;;;;-145.69;100.00;72873.19;5073920;28;20213;-75
2021/11/25 05:25:01;;;;;;;26.20;7.97;;;;;;;-145.69;100.00;72849.28;5073833;28;20198;-75
2021/11/25 05:27:27;;;;;;;23.10;8.57;;;;;;;-145.69;100.00;72863.22;5073865;28;20570;-75
2021/11/25 05:29:55;;;;;;;28.77;8.97;;;;;;;-145.69;100.00;72853.28;5073649;28;20658;-75
2021/11/25 05:32:22;;;;;;;22.67;7.90;;;;;;;-145.69;100.00;72863.22;5073468;28;20223;-76
2021/11/25 05:34:48;;;;;;;21.53;7.63;;;;;;;-145.69;100.00;72875.16;5073516;28;20681;-75
2021/11/25 05:37:16;;;;;;;23.47;6.47;;;;;;;-145.69;100.00;72883.13;5073581;28;20714;-75
2021/11/25 05:39:43;;;;;;;15.87;6.30;;;;;;;-145.69;100.00;72895.06;5073577;28;20198;-75
2021/11/25 05:42:10;;;;;;;15.73;5.67;;;;;;;-145.69;100.00;72901.03;5073562;28;20206;-75
2021/11/25 05:44:37;;;;;;;16.63;5.77;;;;;;;-145.69;100.00;72895.06;5073247;28;20199;-75
2021/11/25 05:47:06;;;;;;;13.47;5.00;;;;;;;-145.69;100.00;72895.06;5073608;28;20561;-75
2021/11/25 05:49:34;;;;;;;13.03;5.13;;;;;;;-145.69;100.00;72903.03;5073459;28;20201;-75
2021/11/25 05:52:06;;;;;;;14.50;5.37;;;;;;;-145.69;100.00;72907.00;5073415;28;20581;-76
2021/11/25 05:54:32;;;;;;;24.00;8.87;;;;;;;-145.69;100.00;72916.97;5073133;28;20675;-76
2021/11/25 05:56:59;;;;;;;25.63;9.70;;;;;;;-145.69;100.00;72905.03;5073286;28;20207;-75
2021/11/25 05:59:25;;;;;;;29.33;11.03;;;;;;;-145.69;100.00;72911.00;5073297;28;20198;-76
2021/11/25 06:01:52;;;;;;;30.37;9.67;;;;;;;-145.69;100.00;72914.97;5073123;28;20783;-76
2021/11/25 06:04:20;;;;;;;31.77;10.47;;;;;;;-145.69;100.00;72916.97;5073303;28;20260;-76
2021/11/25 06:06:49;;;;;;;29.83;10.40;;;;;;;-145.69;100.00;72926.91;5073281;28;20198;-76
2021/11/25 06:09:15;;;;;;;29.17;10.60;;;;;;;-145.69;100.00;72918.97;5073122;28;20210;-75
2021/11/25 06:11:42;;;;;;;23.27;9.53;;;;;;;-145.69;100.00;72918.97;5072952;28;20210;-76
2021/11/25 06:14:10;;;;;;;28.07;9.77;;;;;;;-145.69;100.00;72924.94;5073043;28;20696;-75
2021/11/25 06:16:39;;;;;;;27.60;9.03;;;;;;;-145.69;100.00;72946.81;5073262;28;20736;-75
2021/11/25 06:19:06;;;;;;;23.63;9.60;;;;;;;-145.69;100.00;72940.84;5097780;28;20233;-74
2021/11/25 06:21:36;;;;;;;30.07;10.63;;;;;;;-145.69;100.00;72918.97;5113605;28;20200;-75
2021/11/25 06:24:02;;;;;;;25.20;9.83;;;;;;;-145.69;100.00;72897.06;5113322;28;20197;-76
2021/11/25 06:26:29;;;;;;;33.13;11.50;;;;;;;-145.69;100.00;72903.03;5113285;28;20280;-75
2021/11/25 06:28:55;;;;;;;34.97;11.80;;;;;;;-145.69;100.00;72918.97;5113284;28;20280;-76
2021/11/25 06:31:22;;;;;;;25.33;9.77;;;;;;;-145.69;100.00;72916.97;5113195;28;20204;-75
2021/11/25 06:33:49;;;;;;;32.83;10.67;;;;;;;-145.69;100.00;72905.03;5113308;28;20228;-76
2021/11/25 06:36:16;;;;;;;32.40;10.73;;;;;;;-145.69;100.00;72897.06;5113241;28;20655;-75
2021/11/25 06:38:44;;;;;;;32.53;10.63;;;;;;;-145.69;100.00;72899.06;5113221;28;20197;-75
2021/11/25 06:41:13;;;;;;;56.37;12.73;;;;;;;-145.69;100.00;72899.06;5113336;28;20212;-75
2021/11/25 06:43:40;;;;;;;37.90;12.70;;;;;;;-145.69;100.00;72891.09;5113184;28;20197;-75
2021/11/25 06:46:08;;;;;;;38.47;12.70;;;;;;;-145.69;100.00;72895.06;5113252;28;20670;-75
2021/11/25 06:48:34;;;;;;;50.27;14.47;;;;;;;-145.69;100.00;72887.09;5113262;28;20647;-75
2021/11/25 06:51:01;;;;;;;79.90;14.57;;;;;;;-145.69;100.00;72869.19;5113254;28;20206;-75
2021/11/25 06:53:28;;;;;;;48.67;13.23;;;;;;;-145.69;100.00;72859.25;5113070;28;20232;-75
2021/11/25 06:55:56;;;;;;;112.33;15.47;;;;;;;-145.69;100.00;72855.25;5113421;28;20205;-75
2021/11/25 06:58:23;;;;;;;106.07;18.40;;;;;;;-145.69;100.00;72851.28;5113454;28;20201;-76
2021/11/25 07:00:52;;;;;;;76.47;15.93;;;;;;;-145.69;100.00;72855.25;5115122;28;20540;-75
2021/11/25 07:03:18;;;;;;;88.17;15.83;;;;;;;-145.69;100.00;72843.31;5112984;28;20660;-76
2021/11/25 07:05:45;;;;;;;45.80;15.73;;;;;;;-145.69;100.00;72849.28;5112928;28;20668;-76
2021/11/25 07:08:17;;;;;;;50.10;14.57;;;;;;;-145.69;100.00;72839.34;5113267;28;20203;-76
2021/11/25 07:10:46;;;;;;;63.80;14.07;;;;;;;-145.69;100.00;72829.38;5113202;28;20205;-75
2021/11/25 07:13:17;;;;;;;41.23;12.50;;;;;;;-145.69;100.00;72823.41;5113043;28;20226;-76
2021/11/25 07:15:45;;;;;;;68.90;13.43;;;;;;;-145.69;100.00;72821.41;5112960;28;20618;-76
2021/11/25 07:18:11;;;;;;;74.43;14.13;;;;;;;-145.69;100.00;72813.47;5112709;28;20226;-75
2021/11/25 07:20:38;;;;;;;39.77;13.37;;;;;;;-145.69;100.00;72807.47;5112933;28;20198;-76
2021/11/25 07:23:04;;;;;;;42.77;13.13;;;;;;;-145.69;100.00;72791.56;5112966;28;20208;-75
2021/11/25 07:25:31;;;;;;;43.67;13.33;;;;;;;-145.69;100.00;72775.63;5112806;28;20674;-76
2021/11/25 07:27:58;;;;;;;31.37;12.47;;;;;;;-145.69;100.00;72765.69;5112950;28;20194;-76
2021/11/25 07:30:25;;;;;;;62.90;12.67;;;;;;;-145.69;100.00;72771.66;5113056;28;20197;-76
2021/11/25 07:32:52;;;;;;;61.77;12.40;;;;;;;-145.69;100.00;72787.56;5112598;28;20241;-75
2021/11/25 07:35:23;;;;;;;75.10;14.57;;;;;;;-145.69;100.00;72795.53;5112979;28;20551;-75
2021/11/25 07:37:53;;;;;;;83.07;15.70;;;;;;;-145.69;100.00;72783.59;5112783;28;20687;-76
2021/11/25 07:40:21;;;;;;;92.67;16.53;;;;;;;-145.69;100.00;72783.59;5115717;28;20285;-75
2021/11/25 07:42:48;;;;;;;75.90;17.00;;;;;;;-145.69;100.00;72747.78;5116686;28;20220;-76
2021/11/25 07:45:16;;;;;;;71.57;16.30;;;;;;;-145.69;100.00;72715.91;5116675;28;20202;-75
2021/11/25 07:47:44;;;;;;;90.33;16.37;;;;;;;-145.69;100.00;72700.00;5116455;28;20205;-75
2021/11/25 07:50:14;;;;;;;84.70;16.80;;;;;;;-145.69;100.00;72694.03;5116493;28;20208;-75
2021/11/25 07:52:45;;;;;;;66.80;16.30;;;;;;;-145.69;100.00;72682.09;5116518;28;20217;-75
2021/11/25 07:55:16;;;;;;;49.77;14.00;;;;;;;-145.69;100.00;72666.16;5116268;28;20201;-76
2021/11/25 07:57:44;;;;;;;66.30;13.90;;;;;;;-145.69;100.00;72660.19;5116326;27;20197;-75
2021/11/25 08:00:12;;;;;;;40.47;12.57;;;;;;;-145.69;100.00;72660.19;5116431;28;20263;-75
2021/11/25 08:02:41;;;;;;;53.53;15.23;;;;;;;-145.69;100.00;72662.19;5116229;28;20208;-76
2021/11/25 08:05:11;;;;;;;46.13;13.13;;;;;;;-145.69;100.00;72660.19;5115981;28;20655;-76
2021/11/25 08:07:39;;;;;;;40.40;12.67;;;;;;;-145.69;100.00;72620.38;5115978;28;20197;-75
2021/11/25 08:10:14;;;;;;;51.67;14.83;;;;;;;-145.69;100.00;72636.31;5115912;28;20201;-75
2021/11/25 08:12:48;;;;;;;106.77;15.17;;;;;;;-145.69;100.00;72664.16;5116193;28;20217;-75
2021/11/25 08:15:18;;;;;;;56.90;13.47;;;;;;;-145.69;100.00;72692.03;5115702;28;20199;-75
2021/11/25 08:17:47;;;;;;;79.90;13.07;;;;;;;-145.69;100.00;72686.06;5115695;28;20250;-75
2021/11/25 08:20:18;;;;;;;45.63;13.03;;;;;;;-145.69;100.00;72644.25;5115734;28;20634;-75
2021/11/25 08:22:45;;;;;;;56.67;15.63;;;;;;;-145.69;100.00;72624.34;5115554;28;20211;-75
2021/11/25 08:25:16;;;;;;;41.93;12.93;;;;;;;-145.69;100.00;72606.44;5115543;28;20209;-75
2021/11/25 08:27:44;;;;;;;51.60;14.60;;;;;;;-145.69;100.00;72560.66;5115771;28;20224;-75
2021/11/25 08:30:13;;;;;;;67.67;14.90;;;;;;;-145.69;100.00;72632.31;5115576;28;20228;-75
2021/11/25 08:32:52;;;;;;;42.27;13.53;;;;;;;-145.69;100.00;72624.34;5115571;28;20232;-75
2021/11/25 08:38:06;;;;;;;47.43;13.63;;;;;;;-145.69;100.00;72616.41;5113457;27;20529;-75
2021/11/25 08:40:32;;;;;;;35.53;11.27;;;;;;;-145.69;100.00;72628.34;5115303;28;20198;-75
2021/11/25 08:42:59;;;;;;;51.87;13.60;;;;;;;-145.69;100.00;72594.50;5115352;28;20197;-75
2021/11/25 08:45:33;;;;;;;45.03;14.30;;;;;;;-145.69;100.00;72602.47;5115364;28;20254;-75
2021/11/25 08:48:11;;;;;;;52.13;13.83;;;;;;;-145.69;100.00;72608.44;5115401;28;20205;-75
2021/11/25 08:50:45;;;;;;;41.47;13.17;;;;;;;-145.69;100.00;72574.59;5114623;28;20238;-75
2021/11/25 08:53:12;;;;;;;43.87;13.40;;;;;;;-145.69;100.00;72554.69;5117578;27;20668;-75
2021/11/25 08:55:41;;;;;;;50.77;13.83;;;;;;;-145.69;100.00;72542.75;5114574;28;20288;-75
2021/11/25 08:58:08;;;;;;;54.90;15.77;;;;;;;-145.69;100.00;72556.69;5115024;28;20201;-75
2021/11/25 09:00:36;;;;;;;53.17;14.37;;;;;;;-145.69;100.00;72598.47;5115000;28;20201;-75
2021/11/25 09:03:04;;;;;;;41.43;13.87;;;;;;;-145.69;100.00;72588.53;5115040;28;20201;-75
2021/11/25 09:05:39;;;;;;;40.27;13.20;;;;;;;-145.69;100.00;72554.69;5114917;28;20784;-75
2021/11/25 09:08:09;;;;;;;45.73;14.10;;;;;;;-145.69;100.00;72536.78;5114813;28;20204;-75
2021/11/25 09:10:38;;;;;;;42.03;13.57;;;;;;;-145.69;100.00;72576.59;5114743;28;20283;-76
2021/11/25 09:13:05;;;;;;;48.30;13.70;;;;;;;-145.69;100.00;72498.97;5114512;28;20235;-76
2021/11/25 09:15:42;;;;;;;51.27;13.83;;;;;;;-145.69;100.00;72560.66;5114830;28;20205;-76
2021/11/25 09:18:12;;;;;;;50.63;14.13;;;;;;;-145.69;100.00;72586.53;5114548;28;20224;-75
2021/11/25 09:20:43;;;;;;;45.50;14.23;;;;;;;-145.69;100.00;72576.59;5114672;28;20567;-77
2021/11/25 09:23:13;;;;;;;38.37;13.13;;;;;;;-145.69;100.00;72536.78;5114965;28;20560;-76
2021/11/25 09:25:43;;;;;;;50.17;15.43;;;;;;;-145.69;100.00;72548.72;5114673;28;20258;-75
2021/11/25 09:28:18;;;;;;;40.97;13.47;;;;;;;-145.69;100.00;72572.59;5114330;28;20686;-76
2021/11/25 09:30:46;;;;;;;43.23;14.33;;;;;;;-145.69;100.00;72586.53;5114392;28;20197;-76
2021/11/25 09:33:13;;;;;;;41.97;12.87;;;;;;;-145.69;100.00;72578.56;5114326;28;20248;-76
2021/11/25 09:35:46;;;;;;;39.47;13.17;;;;;;;-145.69;100.00;72568.63;5114120;28;20644;-76
2021/11/25 09:38:16;;;;;;;39.73;13.60;;;;;;;-145.69;100.00;72524.84;5114463;28;20201;-76
2021/11/25 09:40:52;;;;;;;44.37;15.03;;;;;;;-145.69;100.00;72532.78;5114310;28;20292;-76
2021/11/25 09:43:27;;;;;;;39.13;14.30;;;;;;;-145.69;100.00;72514.88;5114381;28;20265;-76
2021/11/25 09:46:01;;;;;;;33.20;12.13;;;;;;;-145.69;100.00;72512.91;5114069;28;20211;-76
2021/11/25 09:48:41;;;;;;;31.77;12.60;;;;;;;-145.69;100.00;72516.88;5114410;28;20182;-76
2021/11/25 09:51:12;;;;;;;35.53;13.13;;;;;;;-145.69;100.00;72443.22;5114348;28;20200;-76
2021/11/25 09:53:44;;;;;;;36.03;13.63;;;;;;;-145.69;100.00;72413.38;5114083;28;20235;-76
2021/11/25 09:56:13;;;;;;;36.63;13.03;;;;;;;-145.69;100.00;72409.38;5114173;28;20193;-76
2021/11/25 09:58:50;;;;;;;32.80;12.33;;;;;;;-145.69;100.00;72373.56;5113763;28;20197;-76
2021/11/25 10:01:27;;;;;;;38.23;14.07;;;;;;;-145.69;100.00;72347.69;5113639;28;20194;-76
2021/11/25 10:03:54;;;;;;;34.73;13.47;;;;;;;-145.69;100.00;72361.63;5113863;28;20201;-77
2021/11/25 10:06:26;;;;;;;30.03;12.43;;;;;;;-145.69;100.00;72337.75;5113949;28;20203;-76
2021/11/25 10:08:57;;;;;;;31.10;12.10;;;;;;;-145.69;100.00;72339.72;5112980;27;20204;-76
2021/11/25 10:11:34;;;;;;;28.80;12.00;;;;;;;-145.69;100.00;72319.81;5113627;28;20201;-75
2021/11/25 10:16:55;;;;;;;29.93;12.07;;;;;;;-145.69;100.00;72351.66;5128713;27;20208;-76
2021/11/25 10:19:27;;;;;;;37.13;14.13;;;;;;;-145.69;100.00;72335.75;5133803;27;20240;-76
2021/11/25 10:22:12;;;;;;;33.50;14.07;;;;;;;-145.69;100.00;72347.69;5134221;27;20196;-75
2021/11/25 10:24:46;;;;;;;32.67;12.80;;;;;;;-145.69;100.00;72377.53;5134185;27;20197;-75
2021/11/25 10:27:19;;;;;;;34.67;14.20;;;;;;;-145.69;100.00;72389.50;5134295;27;20196;-76
2021/11/25 10:29:54;;;;;;;33.80;13.07;;;;;;;-145.69;100.00;72367.59;5134238;27;20205;-76
2021/11/25 10:32:25;;;;;;;39.07;14.20;;;;;;;-145.69;100.00;72363.63;5134289;27;20253;-76
2021/11/25 10:35:08;;;;;;;35.97;13.30;;;;;;;-145.69;100.00;72329.78;5134181;27;20228;-76
2021/11/25 10:37:40;;;;;;;35.43;11.93;;;;;;;-145.69;100.00;72373.56;5134104;27;20257;-75
2021/11/25 10:40:30;;;;;;;30.73;11.70;;;;;;;-145.69;100.00;72363.63;5134031;27;20197;-76
2021/11/25 10:42:59;;;;;;;30.03;11.50;;;;;;;-145.69;100.00;72395.47;5133840;27;20201;-76
2021/11/25 10:45:29;;;;;;;36.43;12.20;;;;;;;-145.69;100.00;72399.44;5133827;27;20670;-76
2021/11/25 10:47:57;;;;;;;32.27;11.77;;;;;;;-145.69;100.00;72393.47;5133985;27;20224;-76
2021/11/25 10:50:37;;;;;;;27.70;10.60;;;;;;;-145.69;100.00;72377.53;5133849;27;20655;-75
2021/11/25 10:53:08;;;;;;;38.30;13.07;;;;;;;-145.69;100.00;72343.72;5134065;27;20201;-76
2021/11/25 10:55:40;;;;;;;34.70;13.17;;;;;;;-145.69;100.00;72345.69;5134095;27;20249;-76
2021/11/25 10:58:11;;;;;;;31.93;12.90;;;;;;;-145.69;100.00;72325.81;5130532;27;20203;-76
2021/11/25 11:00:41;;;;;;;31.80;11.80;;;;;;;-145.69;100.00;72331.78;5113188;28;20225;-76
2021/11/25 11:03:25;;;;;;;38.28;16.63;;;;;;;-145.69;100.00;72329.78;5112118;28;20424;-76
2021/11/25 11:05:58;;;;;;;29.43;12.27;;;;;;;-145.69;100.00;72335.75;5113404;28;20292;-77
2021/11/25 11:08:30;;;;;;;33.20;12.30;;;;;;;-145.69;100.00;72387.50;5113258;28;20201;-77
2021/11/25 11:11:04;;;;;;;26.40;11.57;;;;;;;-145.69;100.00;72409.38;5112787;28;20239;-76
2021/11/25 11:13:37;;;;;;;32.07;12.70;;;;;;;-145.69;100.00;72395.47;5114799;28;20223;-77